TFM - Tactical Decision Aid
ID: Runway Winds: CIG/VIS Threshold:

KGWO - Greenwood/Leflore Ar, MS, US

Updated at: 0507 UTC 26 Sep 2018
Latest TAF at: 2331 UTC 25 Sep 2018

TAF Board

Time0453Z 26/06Z 26/07Z 26/08Z 26/09Z 26/10Z 26/11Z 26/12Z 26/13Z 26/14Z 26/15Z 26/16Z 26/17Z 26/18Z>>
Type OBS PRVL PRVL PRVL PRVL PRVL PRVL PRVL PRVL PRVL PRVL PRVL PRVL PRVL
VIS 9 >6 >6 >6 >6 >6 >6 >6 >6 >6 >6 >6 >6 >6
CIG 85 50 50 50 50 50 50 50 50 50 50 50 50 50
Cover BKN BKN BKN BKN BKN BKN BKN BKN OVC OVC OVC OVC OVC OVC
FltCat VFR VFR VFR VFR VFR VFR VFR VFR VFR VFR VFR VFR VFR VFR
WX -- VCSH VCSH VCSH SHRA SHRA SHRA SHRA -SHRA -SHRA -SHRA -SHRA -SHRA -SHRA
WDir 150 160 160 160 200 200 200 200 340 340 340 340 340 340
WSpd 5 4 4 4 3 3 3 3 3 3 3 3 3 3
WGst -- -- -- -- -- -- -- -- -- -- -- -- -- --

TDA Impact Legend

  None Marginal Slight Moderate High
Visibility (sm) >5 3≤X≤5 2≤X<3 0.5≤X<2 <0.5
Ceiling (100 ft) >30 10≤X≤30 6≤X<10 2≤X<6 <2
Wind Speed (kt) <15 15≤X<25 25≤X<30 ≥30
Wind Gust (kt) <15 15≤X<25 25≤X<35 ≥35
Weather No Wx Reported VCTS -TS,-FZRA TS,FZRA +TS,+FZRA
TAF
KGWO 252331Z 2600/2624 15005KT P6SM BKN120
  FM260300 16004KT P6SM VCSH BKN050 BKN090
  FM260900 20003KT P6SM SHRA BKN050
  FM261300 34003KT P6SM -SHRA OVC050


METAR
KGWO 260453Z AUTO 15005KT 9SM FEW055 BKN085 24/23 A3005 RMK AO2 SLP172 T02390228
KGWO 260401Z AUTO 00000KT 10SM FEW029 BKN065 OVC120 24/23 A3004 RMK AO2 T02390228
KGWO 260353Z AUTO 00000KT 10SM VCTS BKN031 BKN050 OVC120 24/23 A3005 RMK AO2 RAB25E38 SLP172 P0001 T02390228
KGWO 260338Z AUTO 19004KT 10SM VCTS BKN029 BKN035 OVC043 24/22 A3005 RMK AO2 LTG DSNT SE RAB25E38 P0001 T02390222
KGWO 260316Z AUTO 00000KT 10SM VCTS BKN035 BKN046 OVC060 24/23 A3004 RMK AO2 T02390228
KGWO 260253Z AUTO 00000KT 10SM FEW046 SCT085 23/23 A3004 RMK AO2 RAB03E40 SLP169 P0002 60002 T02330228 51024
KGWO 260153Z AUTO 00000KT 10SM BKN120 26/23 A3002 RMK AO2 RAB16E35 SLP164 P0000 T02560233

Radar Display
Forecast Discussion